sensor_id;sensor_type;location;lat;lon;timestamp;P1;P2;P0
80692;PMS5003;70055;39.436;-77.514;2024-02-04T00:00:40;10;9;
80692;PMS5003;70055;39.436;-77.514;2024-02-04T00:03:07;6;6;
80692;PMS5003;70055;39.436;-77.514;2024-02-04T00:05:36;9;8;
80692;PMS5003;70055;39.436;-77.514;2024-02-04T00:08:03;9;9;
80692;PMS5003;70055;39.436;-77.514;2024-02-04T00:10:32;8;6;
80692;PMS5003;70055;39.436;-77.514;2024-02-04T00:13:02;6;6;
80692;PMS5003;70055;39.436;-77.514;2024-02-04T00:15:30;3;3;
80692;PMS5003;70055;39.436;-77.514;2024-02-04T00:17:58;5;5;
80692;PMS5003;70055;39.436;-77.514;2024-02-04T00:20:27;5;5;
80692;PMS5003;70055;39.436;-77.514;2024-02-04T00:22:56;5;5;
80692;PMS5003;70055;39.436;-77.514;2024-02-04T00:25:24;5;5;
80692;PMS5003;70055;39.436;-77.514;2024-02-04T00:27:52;5;3;
80692;PMS5003;70055;39.436;-77.514;2024-02-04T00:30:20;5;5;
80692;PMS5003;70055;39.436;-77.514;2024-02-04T00:32:49;6;6;
80692;PMS5003;70055;39.436;-77.514;2024-02-04T00:35:17;3;3;
80692;PMS5003;70055;39.436;-77.514;2024-02-04T00:37:47;4;4;
80692;PMS5003;70055;39.436;-77.514;2024-02-04T00:40:15;5;5;
80692;PMS5003;70055;39.436;-77.514;2024-02-04T00:42:43;2;2;
80692;PMS5003;70055;39.436;-77.514;2024-02-04T00:45:10;4;4;
80692;PMS5003;70055;39.436;-77.514;2024-02-04T00:47:39;4;4;
80692;PMS5003;70055;39.436;-77.514;2024-02-04T00:50:07;5;5;
80692;PMS5003;70055;39.436;-77.514;2024-02-04T00:52:36;5;5;
80692;PMS5003;70055;39.436;-77.514;2024-02-04T00:55:09;10;10;
80692;PMS5003;70055;39.436;-77.514;2024-02-04T00:57:37;12;10;
80692;PMS5003;70055;39.436;-77.514;2024-02-04T01:00:05;8;8;
80692;PMS5003;70055;39.436;-77.514;2024-02-04T01:02:34;8;6;
80692;PMS5003;70055;39.436;-77.514;2024-02-04T01:05:04;6;6;
80692;PMS5003;70055;39.436;-77.514;2024-02-04T01:07:32;6;6;
80692;PMS5003;70055;39.436;-77.514;2024-02-04T01:10:01;8;8;
80692;PMS5003;70055;39.436;-77.514;2024-02-04T01:12:32;8;8;
80692;PMS5003;70055;39.436;-77.514;2024-02-04T01:14:59;8;8;
80692;PMS5003;70055;39.436;-77.514;2024-02-04T01:17:28;8;8;
80692;PMS5003;70055;39.436;-77.514;2024-02-04T01:19:56;9;9;
80692;PMS5003;70055;39.436;-77.514;2024-02-04T01:22:24;8;8;
80692;PMS5003;70055;39.436;-77.514;2024-02-04T01:24:53;9;9;
80692;PMS5003;70055;39.436;-77.514;2024-02-04T01:27:21;8;8;
80692;PMS5003;70055;39.436;-77.514;2024-02-04T01:29:49;9;8;
80692;PMS5003;70055;39.436;-77.514;2024-02-04T01:32:19;8;8;
80692;PMS5003;70055;39.436;-77.514;2024-02-04T01:34:47;9;9;
80692;PMS5003;70055;39.436;-77.514;2024-02-04T01:37:16;9;9;
80692;PMS5003;70055;39.436;-77.514;2024-02-04T01:39:44;6;6;
80692;PMS5003;70055;39.436;-77.514;2024-02-04T01:42:14;27;24;
80692;PMS5003;70055;39.436;-77.514;2024-02-04T01:44:42;21;18;
80692;PMS5003;70055;39.436;-77.514;2024-02-04T01:47:10;16;16;
80692;PMS5003;70055;39.436;-77.514;2024-02-04T01:49:39;17;14;
80692;PMS5003;70055;39.436;-77.514;2024-02-04T01:52:08;6;5;
80692;PMS5003;70055;39.436;-77.514;2024-02-04T01:54:39;8;8;
80692;PMS5003;70055;39.436;-77.514;2024-02-04T01:57:09;8;8;
80692;PMS5003;70055;39.436;-77.514;2024-02-04T01:59:39;8;6;
80692;PMS5003;70055;39.436;-77.514;2024-02-04T02:02:08;8;6;
80692;PMS5003;70055;39.436;-77.514;2024-02-04T02:04:37;5;5;
80692;PMS5003;70055;39.436;-77.514;2024-02-04T02:07:07;4;4;
80692;PMS5003;70055;39.436;-77.514;2024-02-04T02:09:38;5;5;
80692;PMS5003;70055;39.436;-77.514;2024-02-04T02:12:07;5;5;
80692;PMS5003;70055;39.436;-77.514;2024-02-04T02:14:39;2;2;
80692;PMS5003;70055;39.436;-77.514;2024-02-04T02:17:11;5;4;
80692;PMS5003;70055;39.436;-77.514;2024-02-04T02:19:46;4;4;
80692;PMS5003;70055;39.436;-77.514;2024-02-04T02:22:25;5;5;
80692;PMS5003;70055;39.436;-77.514;2024-02-04T02:24:56;5;4;
80692;PMS5003;70055;39.436;-77.514;2024-02-04T02:27:25;4;4;
80692;PMS5003;70055;39.436;-77.514;2024-02-04T02:29:53;9;9;
80692;PMS5003;70055;39.436;-77.514;2024-02-04T02:32:21;9;9;
80692;PMS5003;70055;39.436;-77.514;2024-02-04T02:34:49;5;5;
80692;PMS5003;70055;39.436;-77.514;2024-02-04T02:37:22;6;6;
80692;PMS5003;70055;39.436;-77.514;2024-02-04T02:39:57;9;9;
80692;PMS5003;70055;39.436;-77.514;2024-02-04T02:42:30;8;8;
80692;PMS5003;70055;39.436;-77.514;2024-02-04T02:45:00;5;5;
80692;PMS5003;70055;39.436;-77.514;2024-02-04T02:47:29;8;8;
80692;PMS5003;70055;39.436;-77.514;2024-02-04T02:50:00;6;6;
80692;PMS5003;70055;39.436;-77.514;2024-02-04T02:52:28;6;6;
80692;PMS5003;70055;39.436;-77.514;2024-02-04T02:54:56;14;14;
80692;PMS5003;70055;39.436;-77.514;2024-02-04T02:57:25;12;12;
80692;PMS5003;70055;39.436;-77.514;2024-02-04T02:59:54;12;12;
80692;PMS5003;70055;39.436;-77.514;2024-02-04T03:02:23;11;9;
80692;PMS5003;70055;39.436;-77.514;2024-02-04T03:04:51;11;9;
80692;PMS5003;70055;39.436;-77.514;2024-02-04T03:07:20;9;9;
80692;PMS5003;70055;39.436;-77.514;2024-02-04T03:09:48;11;9;
80692;PMS5003;70055;39.436;-77.514;2024-02-04T03:12:16;9;9;
80692;PMS5003;70055;39.436;-77.514;2024-02-04T03:14:43;7;7;
80692;PMS5003;70055;39.436;-77.514;2024-02-04T03:17:13;11;9;
80692;PMS5003;70055;39.436;-77.514;2024-02-04T03:19:40;8;6;
80692;PMS5003;70055;39.436;-77.514;2024-02-04T03:22:09;9;9;
80692;PMS5003;70055;39.436;-77.514;2024-02-04T03:24:39;6;6;
80692;PMS5003;70055;39.436;-77.514;2024-02-04T03:27:07;6;6;
80692;PMS5003;70055;39.436;-77.514;2024-02-04T03:29:35;8;8;
80692;PMS5003;70055;39.436;-77.514;2024-02-04T03:32:04;9;9;
80692;PMS5003;70055;39.436;-77.514;2024-02-04T03:34:32;9;9;
80692;PMS5003;70055;39.436;-77.514;2024-02-04T03:36:59;8;8;
80692;PMS5003;70055;39.436;-77.514;2024-02-04T03:39:27;9;9;
80692;PMS5003;70055;39.436;-77.514;2024-02-04T03:41:55;9;8;
80692;PMS5003;70055;39.436;-77.514;2024-02-04T03:44:23;11;11;
80692;PMS5003;70055;39.436;-77.514;2024-02-04T03:46:53;6;6;
80692;PMS5003;70055;39.436;-77.514;2024-02-04T03:49:21;11;11;
80692;PMS5003;70055;39.436;-77.514;2024-02-04T03:51:49;9;9;
80692;PMS5003;70055;39.436;-77.514;2024-02-04T03:54:17;11;11;
80692;PMS5003;70055;39.436;-77.514;2024-02-04T03:56:45;8;8;
80692;PMS5003;70055;39.436;-77.514;2024-02-04T03:59:13;8;8;
80692;PMS5003;70055;39.436;-77.514;2024-02-04T04:01:46;7;5;
80692;PMS5003;70055;39.436;-77.514;2024-02-04T04:04:15;8;7;
80692;PMS5003;70055;39.436;-77.514;2024-02-04T04:06:44;9;8;
80692;PMS5003;70055;39.436;-77.514;2024-02-04T04:09:13;8;8;
80692;PMS5003;70055;39.436;-77.514;2024-02-04T04:11:41;5;5;
80692;PMS5003;70055;39.436;-77.514;2024-02-04T04:14:09;8;8;
80692;PMS5003;70055;39.436;-77.514;2024-02-04T04:16:37;5;5;
80692;PMS5003;70055;39.436;-77.514;2024-02-04T04:19:06;5;5;
80692;PMS5003;70055;39.436;-77.514;2024-02-04T04:21:35;7;5;
80692;PMS5003;70055;39.436;-77.514;2024-02-04T04:24:05;7;7;
80692;PMS5003;70055;39.436;-77.514;2024-02-04T04:26:33;5;5;
80692;PMS5003;70055;39.436;-77.514;2024-02-04T04:29:01;5;5;
80692;PMS5003;70055;39.436;-77.514;2024-02-04T04:31:31;5;4;
80692;PMS5003;70055;39.436;-77.514;2024-02-04T04:34:03;5;5;
80692;PMS5003;70055;39.436;-77.514;2024-02-04T04:36:30;4;4;
80692;PMS5003;70055;39.436;-77.514;2024-02-04T04:39:01;5;4;
80692;PMS5003;70055;39.436;-77.514;2024-02-04T04:41:28;5;5;
80692;PMS5003;70055;39.436;-77.514;2024-02-04T04:43:58;8;8;
80692;PMS5003;70055;39.436;-77.514;2024-02-04T04:46:26;7;5;
80692;PMS5003;70055;39.436;-77.514;2024-02-04T04:48:55;8;8;
80692;PMS5003;70055;39.436;-77.514;2024-02-04T04:51:24;5;5;
80692;PMS5003;70055;39.436;-77.514;2024-02-04T04:53:53;7;7;
80692;PMS5003;70055;39.436;-77.514;2024-02-04T04:56:21;7;7;
80692;PMS5003;70055;39.436;-77.514;2024-02-04T04:58:48;7;7;
80692;PMS5003;70055;39.436;-77.514;2024-02-04T05:01:16;8;8;
80692;PMS5003;70055;39.436;-77.514;2024-02-04T05:03:44;6;6;
80692;PMS5003;70055;39.436;-77.514;2024-02-04T05:06:13;9;9;
80692;PMS5003;70055;39.436;-77.514;2024-02-04T05:08:42;9;8;
80692;PMS5003;70055;39.436;-77.514;2024-02-04T05:11:10;8;8;
80692;PMS5003;70055;39.436;-77.514;2024-02-04T05:13:38;12;11;
80692;PMS5003;70055;39.436;-77.514;2024-02-04T05:16:06;4;4;
80692;PMS5003;70055;39.436;-77.514;2024-02-04T05:18:34;7;7;
80692;PMS5003;70055;39.436;-77.514;2024-02-04T05:21:02;14;14;
80692;PMS5003;70055;39.436;-77.514;2024-02-04T05:23:30;8;8;
80692;PMS5003;70055;39.436;-77.514;2024-02-04T05:25:58;7;7;
80692;PMS5003;70055;39.436;-77.514;2024-02-04T05:28:31;7;7;
80692;PMS5003;70055;39.436;-77.514;2024-02-04T05:31:01;5;5;
80692;PMS5003;70055;39.436;-77.514;2024-02-04T05:33:29;5;5;
80692;PMS5003;70055;39.436;-77.514;2024-02-04T05:35:59;5;5;
80692;PMS5003;70055;39.436;-77.514;2024-02-04T05:38:27;7;5;
80692;PMS5003;70055;39.436;-77.514;2024-02-04T05:40:55;4;4;
80692;PMS5003;70055;39.436;-77.514;2024-02-04T05:43:24;5;5;
80692;PMS5003;70055;39.436;-77.514;2024-02-04T05:45:52;4;4;
80692;PMS5003;70055;39.436;-77.514;2024-02-04T05:48:20;4;4;
80692;PMS5003;70055;39.436;-77.514;2024-02-04T05:50:48;5;5;
80692;PMS5003;70055;39.436;-77.514;2024-02-04T05:53:17;4;4;
80692;PMS5003;70055;39.436;-77.514;2024-02-04T05:55:46;5;5;
80692;PMS5003;70055;39.436;-77.514;2024-02-04T05:58:15;5;4;
80692;PMS5003;70055;39.436;-77.514;2024-02-04T06:00:44;5;4;
80692;PMS5003;70055;39.436;-77.514;2024-02-04T06:03:12;4;4;
80692;PMS5003;70055;39.436;-77.514;2024-02-04T06:05:40;5;5;
80692;PMS5003;70055;39.436;-77.514;2024-02-04T06:08:09;2;2;
80692;PMS5003;70055;39.436;-77.514;2024-02-04T06:10:37;5;4;
80692;PMS5003;70055;39.436;-77.514;2024-02-04T06:13:04;5;4;
80692;PMS5003;70055;39.436;-77.514;2024-02-04T06:15:32;4;4;
80692;PMS5003;70055;39.436;-77.514;2024-02-04T06:18:02;4;4;
80692;PMS5003;70055;39.436;-77.514;2024-02-04T06:20:29;2;2;
80692;PMS5003;70055;39.436;-77.514;2024-02-04T06:22:57;4;4;
80692;PMS5003;70055;39.436;-77.514;2024-02-04T06:25:25;2;2;
80692;PMS5003;70055;39.436;-77.514;2024-02-04T06:27:54;5;5;
80692;PMS5003;70055;39.436;-77.514;2024-02-04T06:30:21;2;2;
80692;PMS5003;70055;39.436;-77.514;2024-02-04T06:32:49;2;2;
80692;PMS5003;70055;39.436;-77.514;2024-02-04T06:35:17;4;4;
80692;PMS5003;70055;39.436;-77.514;2024-02-04T06:37:45;4;4;
80692;PMS5003;70055;39.436;-77.514;2024-02-04T06:40:14;5;5;
80692;PMS5003;70055;39.436;-77.514;2024-02-04T06:42:41;7;5;
80692;PMS5003;70055;39.436;-77.514;2024-02-04T06:45:12;5;5;
80692;PMS5003;70055;39.436;-77.514;2024-02-04T06:47:43;8;8;
80692;PMS5003;70055;39.436;-77.514;2024-02-04T06:50:11;4;4;
80692;PMS5003;70055;39.436;-77.514;2024-02-04T06:52:39;7;5;
80692;PMS5003;70055;39.436;-77.514;2024-02-04T06:55:08;10;10;
80692;PMS5003;70055;39.436;-77.514;2024-02-04T06:57:37;7;7;
80692;PMS5003;70055;39.436;-77.514;2024-02-04T07:00:05;8;8;
80692;PMS5003;70055;39.436;-77.514;2024-02-04T07:02:33;5;5;
80692;PMS5003;70055;39.436;-77.514;2024-02-04T07:05:02;4;4;
80692;PMS5003;70055;39.436;-77.514;2024-02-04T07:07:31;7;7;
80692;PMS5003;70055;39.436;-77.514;2024-02-04T07:10:00;5;5;
80692;PMS5003;70055;39.436;-77.514;2024-02-04T07:12:28;5;5;
80692;PMS5003;70055;39.436;-77.514;2024-02-04T07:14:56;5;5;
80692;PMS5003;70055;39.436;-77.514;2024-02-04T07:17:24;5;5;
80692;PMS5003;70055;39.436;-77.514;2024-02-04T07:19:52;5;5;
80692;PMS5003;70055;39.436;-77.514;2024-02-04T07:22:20;2;2;
80692;PMS5003;70055;39.436;-77.514;2024-02-04T07:24:48;2;2;
80692;PMS5003;70055;39.436;-77.514;2024-02-04T07:27:15;2;2;
80692;PMS5003;70055;39.436;-77.514;2024-02-04T07:29:43;2;2;
80692;PMS5003;70055;39.436;-77.514;2024-02-04T07:32:12;5;5;
80692;PMS5003;70055;39.436;-77.514;2024-02-04T07:34:40;4;4;
80692;PMS5003;70055;39.436;-77.514;2024-02-04T07:37:07;4;4;
80692;PMS5003;70055;39.436;-77.514;2024-02-04T07:39:37;4;2;
80692;PMS5003;70055;39.436;-77.514;2024-02-04T07:42:08;4;4;
80692;PMS5003;70055;39.436;-77.514;2024-02-04T07:44:36;2;2;
80692;PMS5003;70055;39.436;-77.514;2024-02-04T07:47:04;2;2;
80692;PMS5003;70055;39.436;-77.514;2024-02-04T07:49:31;2;2;
80692;PMS5003;70055;39.436;-77.514;2024-02-04T07:51:59;5;5;
80692;PMS5003;70055;39.436;-77.514;2024-02-04T07:54:28;7;7;
80692;PMS5003;70055;39.436;-77.514;2024-02-04T07:56:57;8;8;
80692;PMS5003;70055;39.436;-77.514;2024-02-04T07:59:24;5;5;
80692;PMS5003;70055;39.436;-77.514;2024-02-04T08:01:52;13;11;
80692;PMS5003;70055;39.436;-77.514;2024-02-04T08:04:21;5;5;
80692;PMS5003;70055;39.436;-77.514;2024-02-04T08:06:50;8;7;
80692;PMS5003;70055;39.436;-77.514;2024-02-04T08:09:18;2;2;
80692;PMS5003;70055;39.436;-77.514;2024-02-04T08:11:48;4;4;
80692;PMS5003;70055;39.436;-77.514;2024-02-04T08:14:23;4;4;
80692;PMS5003;70055;39.436;-77.514;2024-02-04T08:16:51;4;4;
80692;PMS5003;70055;39.436;-77.514;2024-02-04T08:19:19;4;4;
80692;PMS5003;70055;39.436;-77.514;2024-02-04T08:21:48;4;4;
80692;PMS5003;70055;39.436;-77.514;2024-02-04T08:24:16;5;4;
80692;PMS5003;70055;39.436;-77.514;2024-02-04T08:26:44;2;2;
80692;PMS5003;70055;39.436;-77.514;2024-02-04T08:29:15;4;4;
80692;PMS5003;70055;39.436;-77.514;2024-02-04T08:31:45;2;2;
80692;PMS5003;70055;39.436;-77.514;2024-02-04T08:34:13;4;4;
80692;PMS5003;70055;39.436;-77.514;2024-02-04T08:36:42;1;1;
80692;PMS5003;70055;39.436;-77.514;2024-02-04T08:39:10;4;4;
80692;PMS5003;70055;39.436;-77.514;2024-02-04T08:41:37;2;1;
80692;PMS5003;70055;39.436;-77.514;2024-02-04T08:44:06;4;4;
80692;PMS5003;70055;39.436;-77.514;2024-02-04T08:46:36;1;1;
80692;PMS5003;70055;39.436;-77.514;2024-02-04T08:49:05;7;7;
80692;PMS5003;70055;39.436;-77.514;2024-02-04T08:51:33;4;4;
80692;PMS5003;70055;39.436;-77.514;2024-02-04T08:54:01;2;2;
80692;PMS5003;70055;39.436;-77.514;2024-02-04T08:56:28;2;2;
80692;PMS5003;70055;39.436;-77.514;2024-02-04T08:58:57;2;2;
80692;PMS5003;70055;39.436;-77.514;2024-02-04T09:01:26;2;2;
80692;PMS5003;70055;39.436;-77.514;2024-02-04T09:03:54;10;10;
80692;PMS5003;70055;39.436;-77.514;2024-02-04T09:06:22;5;4;
80692;PMS5003;70055;39.436;-77.514;2024-02-04T09:08:50;2;1;
80692;PMS5003;70055;39.436;-77.514;2024-02-04T09:11:18;4;2;
80692;PMS5003;70055;39.436;-77.514;2024-02-04T09:13:45;2;2;
80692;PMS5003;70055;39.436;-77.514;2024-02-04T09:16:15;2;2;
80692;PMS5003;70055;39.436;-77.514;2024-02-04T09:18:43;0;0;
80692;PMS5003;70055;39.436;-77.514;2024-02-04T09:21:13;1;1;
80692;PMS5003;70055;39.436;-77.514;2024-02-04T09:23:43;1;1;
80692;PMS5003;70055;39.436;-77.514;2024-02-04T09:26:14;1;1;
80692;PMS5003;70055;39.436;-77.514;2024-02-04T09:28:42;0;0;
80692;PMS5003;70055;39.436;-77.514;2024-02-04T09:31:10;1;1;
80692;PMS5003;70055;39.436;-77.514;2024-02-04T09:33:38;1;1;
80692;PMS5003;70055;39.436;-77.514;2024-02-04T09:36:05;1;1;
80692;PMS5003;70055;39.436;-77.514;2024-02-04T09:38:34;1;1;
80692;PMS5003;70055;39.436;-77.514;2024-02-04T09:41:02;1;1;
80692;PMS5003;70055;39.436;-77.514;2024-02-04T09:43:32;1;1;
80692;PMS5003;70055;39.436;-77.514;2024-02-04T09:46:01;2;2;
80692;PMS5003;70055;39.436;-77.514;2024-02-04T09:48:31;0;0;
80692;PMS5003;70055;39.436;-77.514;2024-02-04T09:50:59;2;2;
80692;PMS5003;70055;39.436;-77.514;2024-02-04T09:53:31;1;1;
80692;PMS5003;70055;39.436;-77.514;2024-02-04T09:56:02;1;1;
80692;PMS5003;70055;39.436;-77.514;2024-02-04T09:58:30;1;1;
80692;PMS5003;70055;39.436;-77.514;2024-02-04T10:00:59;2;2;
80692;PMS5003;70055;39.436;-77.514;2024-02-04T10:03:29;1;1;
80692;PMS5003;70055;39.436;-77.514;2024-02-04T10:05:57;1;1;
80692;PMS5003;70055;39.436;-77.514;2024-02-04T10:08:25;4;4;
80692;PMS5003;70055;39.436;-77.514;2024-02-04T10:10:53;4;4;
80692;PMS5003;70055;39.436;-77.514;2024-02-04T10:13:21;4;4;
80692;PMS5003;70055;39.436;-77.514;2024-02-04T10:15:49;5;5;
80692;PMS5003;70055;39.436;-77.514;2024-02-04T10:18:19;2;2;
80692;PMS5003;70055;39.436;-77.514;2024-02-04T10:20:47;7;5;
80692;PMS5003;70055;39.436;-77.514;2024-02-04T10:23:15;4;4;
80692;PMS5003;70055;39.436;-77.514;2024-02-04T10:25:43;2;2;
80692;PMS5003;70055;39.436;-77.514;2024-02-04T10:28:11;2;2;
80692;PMS5003;70055;39.436;-77.514;2024-02-04T10:30:38;2;2;
80692;PMS5003;70055;39.436;-77.514;2024-02-04T10:33:07;1;1;
80692;PMS5003;70055;39.436;-77.514;2024-02-04T10:35:35;2;2;
80692;PMS5003;70055;39.436;-77.514;2024-02-04T10:38:02;2;2;
80692;PMS5003;70055;39.436;-77.514;2024-02-04T10:40:30;4;2;
80692;PMS5003;70055;39.436;-77.514;2024-02-04T10:43:00;8;8;
80692;PMS5003;70055;39.436;-77.514;2024-02-04T10:45:32;1;1;
80692;PMS5003;70055;39.436;-77.514;2024-02-04T10:48:04;2;2;
80692;PMS5003;70055;39.436;-77.514;2024-02-04T10:50:32;4;4;
80692;PMS5003;70055;39.436;-77.514;2024-02-04T10:53:04;4;4;
80692;PMS5003;70055;39.436;-77.514;2024-02-04T10:55:39;4;4;
80692;PMS5003;70055;39.436;-77.514;2024-02-04T10:58:08;4;2;
80692;PMS5003;70055;39.436;-77.514;2024-02-04T11:00:37;1;1;
80692;PMS5003;70055;39.436;-77.514;2024-02-04T11:03:06;2;1;
80692;PMS5003;70055;39.436;-77.514;2024-02-04T11:05:35;2;2;
80692;PMS5003;70055;39.436;-77.514;2024-02-04T11:08:06;2;2;
80692;PMS5003;70055;39.436;-77.514;2024-02-04T11:10:35;2;2;
80692;PMS5003;70055;39.436;-77.514;2024-02-04T11:13:06;1;1;
80692;PMS5003;70055;39.436;-77.514;2024-02-04T11:15:37;4;4;
80692;PMS5003;70055;39.436;-77.514;2024-02-04T11:18:21;1;1;
80692;PMS5003;70055;39.436;-77.514;2024-02-04T11:21:09;2;2;
80692;PMS5003;70055;39.436;-77.514;2024-02-04T11:23:54;1;1;
80692;PMS5003;70055;39.436;-77.514;2024-02-04T11:26:36;2;2;
80692;PMS5003;70055;39.436;-77.514;2024-02-04T11:29:05;2;2;
80692;PMS5003;70055;39.436;-77.514;2024-02-04T11:31:33;4;4;
80692;PMS5003;70055;39.436;-77.514;2024-02-04T11:34:00;4;4;
80692;PMS5003;70055;39.436;-77.514;2024-02-04T11:36:28;5;4;
80692;PMS5003;70055;39.436;-77.514;2024-02-04T11:39:11;4;4;
80692;PMS5003;70055;39.436;-77.514;2024-02-04T11:41:45;4;4;
80692;PMS5003;70055;39.436;-77.514;2024-02-04T11:44:19;5;5;
80692;PMS5003;70055;39.436;-77.514;2024-02-04T11:46:48;20;18;
80692;PMS5003;70055;39.436;-77.514;2024-02-04T11:49:18;8;8;
80692;PMS5003;70055;39.436;-77.514;2024-02-04T11:51:49;11;11;
80692;PMS5003;70055;39.436;-77.514;2024-02-04T11:54:20;8;7;
80692;PMS5003;70055;39.436;-77.514;2024-02-04T11:56:48;2;2;
80692;PMS5003;70055;39.436;-77.514;2024-02-04T11:59:17;4;4;
80692;PMS5003;70055;39.436;-77.514;2024-02-04T12:01:46;2;2;
80692;PMS5003;70055;39.436;-77.514;2024-02-04T12:04:15;2;2;
80692;PMS5003;70055;39.436;-77.514;2024-02-04T12:06:43;4;4;
80692;PMS5003;70055;39.436;-77.514;2024-02-04T12:09:12;4;4;
80692;PMS5003;70055;39.436;-77.514;2024-02-04T12:11:44;2;2;
80692;PMS5003;70055;39.436;-77.514;2024-02-04T12:14:12;2;2;
80692;PMS5003;70055;39.436;-77.514;2024-02-04T12:16:44;4;4;
80692;PMS5003;70055;39.436;-77.514;2024-02-04T12:19:12;5;5;
80692;PMS5003;70055;39.436;-77.514;2024-02-04T12:21:40;5;4;
80692;PMS5003;70055;39.436;-77.514;2024-02-04T12:24:08;2;2;
80692;PMS5003;70055;39.436;-77.514;2024-02-04T12:26:36;5;4;
80692;PMS5003;70055;39.436;-77.514;2024-02-04T12:29:04;5;5;
80692;PMS5003;70055;39.436;-77.514;2024-02-04T12:31:32;2;2;
80692;PMS5003;70055;39.436;-77.514;2024-02-04T12:34:01;4;4;
80692;PMS5003;70055;39.436;-77.514;2024-02-04T12:36:29;1;1;
80692;PMS5003;70055;39.436;-77.514;2024-02-04T12:39:00;5;4;
80692;PMS5003;70055;39.436;-77.514;2024-02-04T12:41:28;5;5;
80692;PMS5003;70055;39.436;-77.514;2024-02-04T12:43:57;4;4;
80692;PMS5003;70055;39.436;-77.514;2024-02-04T12:46:30;8;5;
80692;PMS5003;70055;39.436;-77.514;2024-02-04T12:48:58;2;2;
80692;PMS5003;70055;39.436;-77.514;2024-02-04T12:51:27;7;7;
80692;PMS5003;70055;39.436;-77.514;2024-02-04T12:54:05;5;5;
80692;PMS5003;70055;39.436;-77.514;2024-02-04T12:56:44;4;4;
80692;PMS5003;70055;39.436;-77.514;2024-02-04T12:59:23;4;4;
80692;PMS5003;70055;39.436;-77.514;2024-02-04T13:01:53;4;4;
80692;PMS5003;70055;39.436;-77.514;2024-02-04T13:04:23;4;4;
80692;PMS5003;70055;39.436;-77.514;2024-02-04T13:06:51;4;4;
80692;PMS5003;70055;39.436;-77.514;2024-02-04T13:09:19;7;5;
80692;PMS5003;70055;39.436;-77.514;2024-02-04T13:11:46;5;5;
80692;PMS5003;70055;39.436;-77.514;2024-02-04T13:14:14;2;2;
80692;PMS5003;70055;39.436;-77.514;2024-02-04T13:16:43;5;5;
80692;PMS5003;70055;39.436;-77.514;2024-02-04T13:19:13;5;5;
80692;PMS5003;70055;39.436;-77.514;2024-02-04T13:21:41;4;4;
80692;PMS5003;70055;39.436;-77.514;2024-02-04T13:24:09;2;2;
80692;PMS5003;70055;39.436;-77.514;2024-02-04T13:26:37;2;2;
80692;PMS5003;70055;39.436;-77.514;2024-02-04T13:29:05;4;4;
80692;PMS5003;70055;39.436;-77.514;2024-02-04T13:31:33;2;2;
80692;PMS5003;70055;39.436;-77.514;2024-02-04T13:34:03;2;2;
80692;PMS5003;70055;39.436;-77.514;2024-02-04T13:36:32;2;2;
80692;PMS5003;70055;39.436;-77.514;2024-02-04T13:40:26;1;1;
80692;PMS5003;70055;39.436;-77.514;2024-02-04T13:42:54;5;5;
80692;PMS5003;70055;39.436;-77.514;2024-02-04T13:45:25;4;4;
80692;PMS5003;70055;39.436;-77.514;2024-02-04T13:47:53;4;4;
80692;PMS5003;70055;39.436;-77.514;2024-02-04T13:50:23;2;2;
80692;PMS5003;70055;39.436;-77.514;2024-02-04T13:52:50;2;2;
80692;PMS5003;70055;39.436;-77.514;2024-02-04T13:55:18;2;2;
80692;PMS5003;70055;39.436;-77.514;2024-02-04T13:57:45;4;4;
80692;PMS5003;70055;39.436;-77.514;2024-02-04T14:00:15;3;3;
80692;PMS5003;70055;39.436;-77.514;2024-02-04T14:02:43;2;2;
80692;PMS5003;70055;39.436;-77.514;2024-02-04T14:05:12;3;3;
80692;PMS5003;70055;39.436;-77.514;2024-02-04T14:07:41;2;2;
80692;PMS5003;70055;39.436;-77.514;2024-02-04T14:10:09;2;2;
80692;PMS5003;70055;39.436;-77.514;2024-02-04T14:12:38;3;3;
80692;PMS5003;70055;39.436;-77.514;2024-02-04T14:15:06;3;3;
80692;PMS5003;70055;39.436;-77.514;2024-02-04T14:17:34;2;2;
80692;PMS5003;70055;39.436;-77.514;2024-02-04T14:20:02;3;3;
80692;PMS5003;70055;39.436;-77.514;2024-02-04T14:22:32;3;3;
80692;PMS5003;70055;39.436;-77.514;2024-02-04T14:25:00;3;3;
80692;PMS5003;70055;39.436;-77.514;2024-02-04T14:27:28;3;3;
80692;PMS5003;70055;39.436;-77.514;2024-02-04T14:29:56;3;3;
80692;PMS5003;70055;39.436;-77.514;2024-02-04T14:32:26;3;3;
80692;PMS5003;70055;39.436;-77.514;2024-02-04T14:34:56;2;2;
80692;PMS5003;70055;39.436;-77.514;2024-02-04T14:37:24;3;3;
80692;PMS5003;70055;39.436;-77.514;2024-02-04T14:39:51;2;2;
80692;PMS5003;70055;39.436;-77.514;2024-02-04T14:42:20;3;3;
80692;PMS5003;70055;39.436;-77.514;2024-02-04T14:44:48;3;3;
80692;PMS5003;70055;39.436;-77.514;2024-02-04T14:47:15;4;4;
80692;PMS5003;70055;39.436;-77.514;2024-02-04T14:49:43;4;4;
80692;PMS5003;70055;39.436;-77.514;2024-02-04T14:52:10;6;6;
80692;PMS5003;70055;39.436;-77.514;2024-02-04T14:54:38;4;3;
80692;PMS5003;70055;39.436;-77.514;2024-02-04T14:57:07;3;3;
80692;PMS5003;70055;39.436;-77.514;2024-02-04T14:59:35;3;3;
80692;PMS5003;70055;39.436;-77.514;2024-02-04T15:02:04;4;4;
80692;PMS5003;70055;39.436;-77.514;2024-02-04T15:04:33;4;4;
80692;PMS5003;70055;39.436;-77.514;2024-02-04T15:07:03;3;3;
80692;PMS5003;70055;39.436;-77.514;2024-02-04T15:09:31;3;3;
80692;PMS5003;70055;39.436;-77.514;2024-02-04T15:11:59;3;3;
80692;PMS5003;70055;39.436;-77.514;2024-02-04T15:14:28;4;4;
80692;PMS5003;70055;39.436;-77.514;2024-02-04T15:17:00;4;3;
80692;PMS5003;70055;39.436;-77.514;2024-02-04T15:19:29;4;4;
80692;PMS5003;70055;39.436;-77.514;2024-02-04T15:21:57;3;3;
80692;PMS5003;70055;39.436;-77.514;2024-02-04T15:24:26;4;4;
80692;PMS5003;70055;39.436;-77.514;2024-02-04T15:26:54;2;2;
80692;PMS5003;70055;39.436;-77.514;2024-02-04T15:29:28;2;2;
80692;PMS5003;70055;39.436;-77.514;2024-02-04T15:31:58;3;3;
80692;PMS5003;70055;39.436;-77.514;2024-02-04T15:34:26;3;2;
80692;PMS5003;70055;39.436;-77.514;2024-02-04T15:36:54;2;2;
80692;PMS5003;70055;39.436;-77.514;2024-02-04T15:39:22;1;1;
80692;PMS5003;70055;39.436;-77.514;2024-02-04T15:41:50;3;3;
80692;PMS5003;70055;39.436;-77.514;2024-02-04T15:44:21;2;2;
80692;PMS5003;70055;39.436;-77.514;2024-02-04T15:46:49;2;2;
80692;PMS5003;70055;39.436;-77.514;2024-02-04T15:49:18;2;2;
80692;PMS5003;70055;39.436;-77.514;2024-02-04T15:51:47;2;2;
80692;PMS5003;70055;39.436;-77.514;2024-02-04T15:54:15;2;2;
80692;PMS5003;70055;39.436;-77.514;2024-02-04T15:56:47;2;2;
80692;PMS5003;70055;39.436;-77.514;2024-02-04T15:59:22;2;2;
80692;PMS5003;70055;39.436;-77.514;2024-02-04T16:01:54;2;2;
80692;PMS5003;70055;39.436;-77.514;2024-02-04T16:04:24;2;2;
80692;PMS5003;70055;39.436;-77.514;2024-02-04T16:06:54;0;0;
80692;PMS5003;70055;39.436;-77.514;2024-02-04T16:09:23;1;1;
80692;PMS5003;70055;39.436;-77.514;2024-02-04T16:11:57;1;1;
80692;PMS5003;70055;39.436;-77.514;2024-02-04T16:14:31;1;1;
80692;PMS5003;70055;39.436;-77.514;2024-02-04T16:17:04;2;2;
80692;PMS5003;70055;39.436;-77.514;2024-02-04T16:19:35;1;1;
80692;PMS5003;70055;39.436;-77.514;2024-02-04T16:22:03;1;1;
80692;PMS5003;70055;39.436;-77.514;2024-02-04T16:24:31;1;1;
80692;PMS5003;70055;39.436;-77.514;2024-02-04T16:27:00;1;1;
80692;PMS5003;70055;39.436;-77.514;2024-02-04T16:29:30;1;1;